Time;durP1;ratioP1;P1;durP2;ratioP2;P2;SDS_P1;SDS_P2;PMS_P1;PMS_P2;Temp;Humidity;BMP_temperature;BMP_pressure;BME280_temperature;BME280_humidity;BME280_pressure;Samples;Min_cycle;Max_cycle;Signal;HPM_P1;HPM_P2
2024/03/21 00:01:06;;;;;;;24.52;10.82;;;2.60;62.80;;;;;;4975958;28;20034;-82
2024/03/21 00:03:33;;;;;;;19.95;11.27;;;2.60;63.20;;;;;;4993340;28;20045;-82
2024/03/21 00:05:59;;;;;;;26.17;13.02;;;2.50;63.70;;;;;;4992831;28;20483;-83
2024/03/21 00:08:25;;;;;;;19.92;11.70;;;2.50;64.10;;;;;;4992995;28;20037;-82
2024/03/21 00:10:51;;;;;;;23.92;12.18;;;2.40;63.70;;;;;;4993298;28;20479;-83
2024/03/21 00:13:16;;;;;;;20.52;11.20;;;2.40;64.20;;;;;;4979290;28;20388;-82
2024/03/21 00:15:43;;;;;;;18.20;10.68;;;2.40;64.20;;;;;;4993006;28;20054;-82
2024/03/21 00:18:14;;;;;;;18.90;11.73;;;2.40;64.10;;;;;;4992523;28;20090;-84
2024/03/21 00:20:39;;;;;;;17.67;11.10;;;2.40;63.70;;;;;;4993150;28;20038;-84
2024/03/21 00:23:05;;;;;;;20.23;11.02;;;2.40;63.50;;;;;;4993235;28;20121;-82
2024/03/21 00:25:31;;;;;;;16.65;10.73;;;2.30;63.70;;;;;;4995030;28;20026;-83
2024/03/21 00:27:57;;;;;;;19.70;10.23;;;2.40;63.70;;;;;;4998739;28;20100;-82
2024/03/21 00:30:23;;;;;;;18.33;11.40;;;2.40;63.30;;;;;;5002760;28;20026;-81
2024/03/21 00:32:48;;;;;;;19.30;10.18;;;2.40;63.20;;;;;;4997989;28;20361;-83
2024/03/21 00:35:14;;;;;;;20.38;11.40;;;2.40;63.70;;;;;;4975026;28;20095;-82
2024/03/21 00:37:40;;;;;;;18.05;10.30;;;2.40;63.10;;;;;;4975375;28;20176;-82
2024/03/21 00:40:07;;;;;;;25.23;12.38;;;2.40;63.00;;;;;;4992201;28;20377;-83
2024/03/21 00:42:33;;;;;;;18.27;10.98;;;2.40;63.60;;;;;;4993077;28;20435;-82
2024/03/21 00:44:58;;;;;;;15.82;10.70;;;2.30;63.90;;;;;;4992598;28;20031;-82
2024/03/21 00:47:24;;;;;;;17.30;11.77;;;2.30;63.90;;;;;;4992841;28;20054;-83
2024/03/21 00:49:50;;;;;;;21.50;11.52;;;2.30;64.30;;;;;;4992752;28;20030;-83
2024/03/21 00:52:16;;;;;;;22.00;12.50;;;2.30;64.60;;;;;;4990159;28;20114;-84
2024/03/21 00:54:42;;;;;;;20.67;12.05;;;2.30;64.70;;;;;;4981225;28;20058;-83
2024/03/21 00:57:08;;;;;;;21.65;12.68;;;2.20;64.70;;;;;;4975382;28;20026;-83
2024/03/21 00:59:34;;;;;;;20.10;10.55;;;2.30;64.80;;;;;;4993472;28;20101;-82
2024/03/21 01:01:59;;;;;;;17.10;10.55;;;2.20;64.60;;;;;;4999891;28;20031;-83
2024/03/21 01:04:25;;;;;;;20.52;11.20;;;2.20;64.50;;;;;;4998462;28;20049;-83
2024/03/21 01:06:51;;;;;;;22.00;11.50;;;2.20;64.10;;;;;;4993191;28;20033;-84
2024/03/21 01:09:18;;;;;;;14.05;11.13;;;2.20;63.90;;;;;;4988448;28;20404;-84
2024/03/21 01:11:44;;;;;;;21.33;11.73;;;2.30;63.80;;;;;;4992690;28;20513;-83
2024/03/21 01:14:10;;;;;;;24.50;11.63;;;2.30;63.80;;;;;;4992507;28;20115;-82
2024/03/21 01:16:35;;;;;;;13.60;9.60;;;2.20;63.70;;;;;;4975499;28;20046;-82
2024/03/21 01:19:01;;;;;;;20.05;10.95;;;2.30;64.30;;;;;;4982833;28;20145;-83
2024/03/21 01:21:30;;;;;;;22.65;12.13;;;2.20;63.90;;;;;;4989028;28;20070;-82
2024/03/21 01:23:56;;;;;;;14.27;10.75;;;2.20;64.40;;;;;;4993741;28;20116;-82
2024/03/21 01:26:22;;;;;;;17.77;11.50;;;2.20;64.80;;;;;;4992733;28;20397;-81
2024/03/21 01:28:48;;;;;;;20.15;12.77;;;2.10;65.00;;;;;;4992292;28;20022;-83
2024/03/21 01:31:20;;;;;;;20.38;11.20;;;2.10;65.10;;;;;;4992445;28;20503;-82
2024/03/21 01:33:47;;;;;;;21.73;10.48;;;2.00;65.40;;;;;;4992221;28;20026;-83
2024/03/21 01:36:13;;;;;;;20.08;12.25;;;2.00;65.80;;;;;;4992616;28;20073;-83
2024/03/21 01:38:39;;;;;;;23.58;11.15;;;1.90;66.10;;;;;;4992969;28;20380;-82
2024/03/21 01:41:06;;;;;;;17.25;10.73;;;1.90;67.10;;;;;;4993289;28;20054;-84
2024/03/21 01:43:32;;;;;;;23.15;12.15;;;1.90;67.00;;;;;;4975163;28;20050;-83
2024/03/21 01:46:15;;;;;;;19.38;11.65;;;1.90;67.20;;;;;;4992115;28;20030;-82
2024/03/21 01:49:03;;;;;;;17.98;10.38;;;1.80;67.40;;;;;;4988800;28;20102;-82
2024/03/21 01:51:29;;;;;;;22.05;11.95;;;1.80;67.50;;;;;;4991733;28;20038;-81
2024/03/21 01:53:55;;;;;;;20.85;12.60;;;1.70;67.50;;;;;;4985297;28;20073;-81
2024/03/21 01:56:22;;;;;;;15.67;11.33;;;1.70;67.90;;;;;;4981948;28;20379;-83
2024/03/21 01:58:47;;;;;;;16.92;12.00;;;1.70;68.20;;;;;;4992028;28;20032;-82
2024/03/21 02:01:26;;;;;;;18.40;11.35;;;1.70;68.30;;;;;;4992430;28;20113;-82
2024/03/21 02:04:00;;;;;;;17.80;11.88;;;1.60;68.50;;;;;;4988912;28;20385;-82
2024/03/21 02:06:27;;;;;;;23.55;12.88;;;1.60;69.00;;;;;;4996481;28;20070;-81
2024/03/21 02:08:53;;;;;;;21.55;10.77;;;1.60;69.20;;;;;;4995367;28;20100;-83
2024/03/21 02:11:20;;;;;;;19.80;11.70;;;1.50;69.20;;;;;;4995734;28;20043;-81
2024/03/21 02:13:46;;;;;;;18.92;11.18;;;1.50;69.40;;;;;;4978264;28;20018;-83
2024/03/21 02:16:12;;;;;;;17.33;11.73;;;1.50;69.20;;;;;;4995336;28;20025;-82
2024/03/21 02:18:38;;;;;;;25.25;12.27;;;1.50;69.10;;;;;;4996299;28;20050;-82
2024/03/21 02:21:06;;;;;;;19.83;11.88;;;1.60;68.90;;;;;;4968884;28;20038;-82
2024/03/21 02:23:33;;;;;;;18.58;11.18;;;1.50;69.20;;;;;;4994765;28;20053;-83
2024/03/21 02:26:10;;;;;;;17.95;11.45;;;1.50;69.80;;;;;;4995079;28;20033;-81
2024/03/21 02:28:36;;;;;;;23.13;13.13;;;1.40;70.00;;;;;;4980146;28;20026;-84
2024/03/21 02:31:01;;;;;;;18.90;11.63;;;1.40;70.10;;;;;;4986341;28;20045;-84
2024/03/21 02:33:27;;;;;;;20.92;13.55;;;1.40;70.20;;;;;;4995686;28;20018;-83
2024/03/21 02:35:53;;;;;;;20.10;13.55;;;1.30;70.40;;;;;;4995637;28;20579;-83
2024/03/21 02:38:19;;;;;;;18.73;12.98;;;1.30;70.60;;;;;;4995534;28;20041;-83
2024/03/21 02:40:46;;;;;;;21.88;13.15;;;1.30;71.00;;;;;;4994857;28;20038;-82
2024/03/21 02:43:12;;;;;;;19.15;12.32;;;1.20;71.20;;;;;;4994873;28;20049;-82
2024/03/21 02:45:40;;;;;;;17.83;11.90;;;1.20;71.30;;;;;;4977726;28;20035;-82
2024/03/21 02:48:06;;;;;;;20.20;13.05;;;1.20;71.20;;;;;;4995591;28;20023;-83
2024/03/21 02:50:33;;;;;;;25.67;13.32;;;1.20;71.10;;;;;;4997602;28;20169;-83
2024/03/21 02:52:59;;;;;;;16.75;12.52;;;1.20;71.30;;;;;;4996383;28;20046;-84
2024/03/21 02:55:25;;;;;;;23.25;13.75;;;1.20;71.40;;;;;;4996506;28;20018;-82
2024/03/21 02:57:50;;;;;;;20.42;12.85;;;1.20;71.90;;;;;;4996659;28;20054;-82
2024/03/21 03:00:16;;;;;;;25.63;14.38;;;1.20;71.90;;;;;;4996591;28;20069;-83
2024/03/21 03:02:42;;;;;;;20.13;14.48;;;1.20;72.10;;;;;;4996542;28;20026;-82
2024/03/21 03:05:11;;;;;;;19.83;13.68;;;1.20;72.30;;;;;;4995236;28;20025;-83
2024/03/21 03:07:37;;;;;;;24.77;13.18;;;1.20;72.10;;;;;;4976035;28;20030;-83
2024/03/21 03:10:03;;;;;;;25.80;13.77;;;1.20;72.20;;;;;;4994225;28;20546;-81
2024/03/21 03:12:29;;;;;;;20.05;12.98;;;1.20;72.60;;;;;;4994905;28;20086;-85
2024/03/21 03:14:54;;;;;;;20.95;12.70;;;1.10;72.80;;;;;;4995034;28;20061;-83
2024/03/21 03:17:20;;;;;;;32.15;15.50;;;1.10;72.90;;;;;;4994505;28;20071;-83
2024/03/21 03:19:46;;;;;;;22.27;13.77;;;1.10;72.90;;;;;;4984618;28;20026;-81
2024/03/21 03:22:12;;;;;;;22.33;13.95;;;1.10;73.10;;;;;;4994014;28;20054;-80
2024/03/21 03:24:37;;;;;;;21.98;12.85;;;1.10;73.30;;;;;;4993947;28;20480;-83
2024/03/21 03:27:03;;;;;;;23.15;13.00;;;1.10;73.20;;;;;;4993970;28;20034;-82
2024/03/21 03:29:29;;;;;;;26.77;13.45;;;1.20;73.10;;;;;;4993956;28;20018;-81
2024/03/21 03:32:01;;;;;;;25.08;12.75;;;1.20;73.10;;;;;;4994264;28;20026;-81
2024/03/21 03:37:12;;;;;;;23.30;12.93;;;1.30;73.00;;;;;;4981454;28;20034;-82
2024/03/21 03:39:38;;;;;;;25.25;14.68;;;1.40;72.80;;;;;;4996170;28;20030;-83
2024/03/21 03:42:04;;;;;;;31.40;15.23;;;1.50;72.70;;;;;;5003984;28;20050;-82
2024/03/21 03:44:30;;;;;;;24.75;16.67;;;1.50;72.50;;;;;;5004371;28;20054;-82
2024/03/21 03:46:55;;;;;;;28.65;16.08;;;1.60;72.80;;;;;;4976627;28;20027;-82
2024/03/21 03:49:21;;;;;;;31.13;16.63;;;1.60;73.00;;;;;;4994323;28;20026;-82
2024/03/21 03:51:47;;;;;;;40.35;16.30;;;1.50;73.30;;;;;;4978938;28;20131;-83
2024/03/21 03:54:13;;;;;;;31.02;15.45;;;1.50;73.70;;;;;;4980519;28;20033;-83
2024/03/21 03:56:38;;;;;;;33.78;17.77;;;1.50;74.00;;;;;;4994112;28;20369;-84
2024/03/21 03:59:04;;;;;;;29.00;16.25;;;1.50;74.10;;;;;;4993614;28;20033;-81
2024/03/21 04:01:30;;;;;;;26.52;16.27;;;1.50;73.80;;;;;;4993798;28;20034;-84
2024/03/21 04:03:58;;;;;;;29.85;15.73;;;1.50;73.90;;;;;;4975868;28;20053;-83
2024/03/21 04:06:24;;;;;;;28.90;15.90;;;1.60;74.10;;;;;;4992167;28;20034;-82
2024/03/21 04:08:50;;;;;;;26.98;16.73;;;1.60;74.30;;;;;;4973805;28;20147;-83
2024/03/21 04:11:16;;;;;;;27.73;16.63;;;1.60;74.60;;;;;;4976491;28;20030;-82
2024/03/21 04:13:43;;;;;;;25.17;14.60;;;1.70;74.60;;;;;;4993370;28;20022;-82
2024/03/21 04:16:15;;;;;;;31.50;16.17;;;1.90;74.40;;;;;;4993032;28;20037;-83
2024/03/21 04:18:40;;;;;;;27.55;15.95;;;2.10;73.50;;;;;;4975659;28;20391;-84
2024/03/21 04:21:06;;;;;;;29.40;16.98;;;2.30;73.00;;;;;;4992718;28;20034;-82
2024/03/21 04:23:32;;;;;;;26.92;15.90;;;2.50;72.20;;;;;;4988285;28;20125;-83
2024/03/21 04:25:58;;;;;;;25.90;16.02;;;2.80;71.70;;;;;;4985627;28;20061;-83
2024/03/21 04:28:24;;;;;;;40.75;18.42;;;3.00;70.90;;;;;;4993453;28;20022;-83
2024/03/21 04:30:49;;;;;;;30.73;15.52;;;3.20;70.50;;;;;;4993532;28;20073;-82
2024/03/21 04:33:16;;;;;;;27.67;16.67;;;3.20;69.40;;;;;;4993277;28;20018;-83
2024/03/21 04:35:42;;;;;;;26.77;15.43;;;3.00;69.00;;;;;;4993208;28;20534;-82
2024/03/21 04:38:08;;;;;;;28.10;17.60;;;2.80;69.30;;;;;;4993476;28;20264;-83
2024/03/21 04:40:35;;;;;;;29.92;15.93;;;2.50;69.70;;;;;;4981519;28;20373;-82
2024/03/21 04:43:01;;;;;;;32.88;17.33;;;2.40;70.00;;;;;;4984543;28;20061;-82
2024/03/21 04:45:27;;;;;;;27.02;16.23;;;2.30;70.40;;;;;;4992652;28;20023;-83
2024/03/21 04:47:53;;;;;;;29.40;16.58;;;2.20;70.50;;;;;;4992578;28;20022;-83
2024/03/21 04:50:20;;;;;;;32.97;16.63;;;2.20;70.70;;;;;;4993583;28;20109;-81
2024/03/21 04:52:46;;;;;;;42.17;17.23;;;2.10;70.80;;;;;;4975255;28;20491;-83
2024/03/21 04:55:12;;;;;;;36.78;17.15;;;2.20;70.70;;;;;;4975279;28;20342;-83
2024/03/21 04:57:38;;;;;;;35.78;17.15;;;2.20;70.60;;;;;;4983676;28;20133;-82
2024/03/21 05:00:10;;;;;;;26.40;14.52;;;2.20;70.50;;;;;;4992431;28;20019;-82
2024/03/21 05:02:38;;;;;;;26.85;16.45;;;2.20;70.30;;;;;;4975148;28;20022;-82
2024/03/21 05:05:04;;;;;;;19.42;13.38;;;2.20;70.30;;;;;;4992189;28;20471;-83
2024/03/21 05:07:31;;;;;;;24.15;15.05;;;2.30;70.20;;;;;;4958872;28;20088;-84
2024/03/21 05:09:57;;;;;;;23.65;14.40;;;2.30;70.00;;;;;;4992864;28;20038;-83
2024/03/21 05:12:22;;;;;;;32.90;15.73;;;2.30;69.80;;;;;;4989985;28;20030;-85
2024/03/21 05:14:48;;;;;;;37.45;17.13;;;2.40;69.80;;;;;;4989851;28;20019;-83
2024/03/21 05:17:16;;;;;;;24.65;15.10;;;2.40;69.80;;;;;;4992636;28;20480;-85
2024/03/21 05:19:43;;;;;;;31.90;17.48;;;2.50;69.70;;;;;;4981216;28;20077;-84
2024/03/21 05:22:08;;;;;;;31.13;15.70;;;2.50;69.70;;;;;;4992263;28;20092;-83
2024/03/21 05:24:34;;;;;;;31.67;16.65;;;2.60;69.70;;;;;;4992406;28;20106;-84
2024/03/21 05:27:02;;;;;;;32.38;17.05;;;2.60;69.40;;;;;;4960933;28;20380;-84
2024/03/21 05:29:32;;;;;;;32.25;17.23;;;2.70;69.50;;;;;;4967307;28;20030;-82
2024/03/21 05:31:58;;;;;;;37.08;18.27;;;2.80;69.60;;;;;;4990248;28;20030;-83
2024/03/21 05:34:24;;;;;;;29.25;16.50;;;2.80;69.40;;;;;;4974917;28;20503;-83
2024/03/21 05:36:50;;;;;;;28.77;17.77;;;2.90;69.30;;;;;;4992888;28;20041;-84
2024/03/21 05:39:15;;;;;;;41.03;17.80;;;3.00;69.10;;;;;;4995317;28;20038;-83
2024/03/21 05:41:41;;;;;;;27.35;16.42;;;3.00;69.10;;;;;;4977890;28;20042;-84
2024/03/21 05:44:07;;;;;;;29.58;17.70;;;3.10;69.20;;;;;;4995756;28;20040;-85
2024/03/21 05:46:33;;;;;;;40.17;20.02;;;3.20;69.10;;;;;;4983039;28;20042;-84
2024/03/21 05:48:58;;;;;;;25.92;16.95;;;3.20;68.80;;;;;;4994373;28;20110;-83
2024/03/21 05:51:24;;;;;;;28.90;16.38;;;3.30;68.60;;;;;;4968467;28;20030;-85
2024/03/21 05:53:50;;;;;;;28.85;16.50;;;3.30;68.30;;;;;;4992371;28;20554;-85
2024/03/21 05:56:17;;;;;;;33.85;18.08;;;3.40;68.40;;;;;;4978127;28;20072;-84
2024/03/21 05:58:46;;;;;;;39.30;17.95;;;3.40;68.40;;;;;;4989655;28;20019;-85
2024/03/21 06:03:43;;;;;;;28.10;18.33;;;3.70;67.90;;;;;;4981277;28;20121;-85
2024/03/21 06:06:10;;;;;;;32.50;17.27;;;3.70;67.80;;;;;;4992928;28;20034;-82
2024/03/21 06:08:36;;;;;;;35.08;18.02;;;3.70;67.80;;;;;;4979319;28;20027;-85
2024/03/21 06:11:03;;;;;;;36.35;18.60;;;3.80;67.80;;;;;;4993815;28;20033;-82
2024/03/21 06:13:30;;;;;;;34.28;18.48;;;3.80;67.60;;;;;;4977947;28;20328;-84
2024/03/21 06:15:56;;;;;;;34.83;19.00;;;3.90;67.30;;;;;;4995935;28;20030;-84
2024/03/21 06:18:31;;;;;;;34.05;18.38;;;3.90;67.10;;;;;;5001029;28;20030;-92
2024/03/21 06:20:58;;;;;;;27.40;17.75;;;4.00;67.30;;;;;;4984564;28;20138;-92
2024/03/21 06:23:23;;;;;;;29.80;19.48;;;4.10;67.10;;;;;;5000484;28;20069;-91
2024/03/21 06:25:49;;;;;;;28.10;18.67;;;4.10;66.70;;;;;;5014338;28;20033;-93
2024/03/21 06:28:15;;;;;;;31.48;19.45;;;4.20;66.70;;;;;;4997294;28;20041;-92
2024/03/21 06:30:42;;;;;;;34.00;19.45;;;4.30;66.60;;;;;;5015458;28;20015;-91
2024/03/21 06:33:08;;;;;;;34.35;20.10;;;4.40;66.70;;;;;;5012737;28;20012;-93
2024/03/21 06:35:34;;;;;;;30.98;18.55;;;4.40;66.40;;;;;;5013081;28;20053;-93
2024/03/21 06:38:00;;;;;;;37.05;20.98;;;4.40;66.90;;;;;;4996947;28;20023;-93
2024/03/21 06:40:27;;;;;;;46.53;20.55;;;4.50;66.20;;;;;;4996155;28;20018;-91
2024/03/21 06:42:53;;;;;;;29.38;18.92;;;4.60;66.20;;;;;;5016453;28;20022;-92
2024/03/21 06:45:19;;;;;;;38.65;21.40;;;4.60;65.80;;;;;;5009864;28;20045;-92
2024/03/21 06:47:47;;;;;;;35.65;19.77;;;4.70;65.70;;;;;;5015239;28;20041;-91
2024/03/21 06:50:17;;;;;;;38.10;21.98;;;4.70;65.50;;;;;;4999223;28;20027;-93
2024/03/21 06:52:44;;;;;;;46.75;20.55;;;4.80;65.30;;;;;;5029785;28;20057;-91
2024/03/21 06:55:11;;;;;;;31.42;20.27;;;4.90;65.30;;;;;;5019745;28;20035;-91
2024/03/21 06:57:40;;;;;;;41.78;21.63;;;5.00;65.20;;;;;;5017678;28;20129;-92
2024/03/21 07:00:10;;;;;;;50.97;21.70;;;5.10;65.10;;;;;;4984695;28;20018;-91
2024/03/21 07:02:36;;;;;;;32.47;18.60;;;5.30;65.10;;;;;;5006333;28;20046;-94
2024/03/21 07:05:05;;;;;;;32.42;20.27;;;5.40;64.50;;;;;;4990520;28;20026;-93
2024/03/21 07:07:31;;;;;;;33.47;20.08;;;5.50;63.70;;;;;;5005319;28;20042;-93
2024/03/21 07:10:00;;;;;;;30.88;19.88;;;5.60;63.60;;;;;;5006470;28;20014;-93
2024/03/21 07:12:30;;;;;;;28.48;18.65;;;5.70;63.00;;;;;;5004340;28;20072;-93
2024/03/21 07:14:58;;;;;;;31.42;21.50;;;5.80;62.90;;;;;;5021428;28;20491;-91
2024/03/21 07:17:25;;;;;;;39.83;22.83;;;5.90;62.80;;;;;;5006164;28;20046;-93
2024/03/21 07:19:51;;;;;;;52.53;22.75;;;6.10;62.70;;;;;;5011447;28;20062;-92
2024/03/21 07:22:17;;;;;;;40.53;23.10;;;6.30;62.40;;;;;;5009048;28;20687;-90
2024/03/21 07:24:43;;;;;;;44.20;23.27;;;6.40;62.00;;;;;;4982626;28;20061;-90
2024/03/21 07:27:09;;;;;;;42.83;25.98;;;6.70;62.00;;;;;;4998975;28;20105;-91
2024/03/21 07:29:35;;;;;;;42.70;25.33;;;7.20;61.70;;;;;;4996832;28;20026;-91
2024/03/21 07:32:06;;;;;;;44.08;24.67;;;8.60;60.40;;;;;;5006796;28;20030;-93
2024/03/21 07:34:35;;;;;;;51.42;25.95;;;10.50;57.50;;;;;;4983907;28;20369;-93
2024/03/21 07:37:02;;;;;;;56.55;26.23;;;12.10;53.30;;;;;;4996144;28;20026;-92
2024/03/21 07:39:28;;;;;;;35.30;23.75;;;13.80;51.50;;;;;;4999776;28;20061;-92
2024/03/21 07:41:54;;;;;;;50.47;26.95;;;15.50;48.30;;;;;;4981257;28;20038;-95
2024/03/21 07:44:20;;;;;;;44.65;28.67;;;16.90;45.50;;;;;;4999773;28;20033;-94
2024/03/21 07:46:49;;;;;;;36.88;26.05;;;18.00;43.40;;;;;;5004125;28;20054;-91
2024/03/21 07:49:15;;;;;;;43.38;26.10;;;18.80;41.10;;;;;;5010786;28;20026;-92
2024/03/21 07:51:40;;;;;;;46.00;25.52;;;19.30;39.50;;;;;;5021738;28;20383;-92
2024/03/21 07:54:07;;;;;;;45.65;26.27;;;19.00;38.70;;;;;;5003349;28;20038;-92
2024/03/21 07:56:32;;;;;;;40.78;27.85;;;19.30;38.40;;;;;;5002442;28;20384;-92
2024/03/21 07:58:58;;;;;;;38.40;26.63;;;20.00;37.90;;;;;;4999237;28;20018;-93
2024/03/21 08:01:25;;;;;;;44.53;26.55;;;20.80;37.80;;;;;;4992195;28;20039;-94
2024/03/21 08:03:52;;;;;;;35.97;24.85;;;21.50;35.80;;;;;;5004037;28;20041;-93
2024/03/21 08:06:18;;;;;;;41.50;26.90;;;22.10;35.30;;;;;;5003265;28;20030;-94
2024/03/21 08:08:44;;;;;;;37.33;24.15;;;22.60;34.20;;;;;;5015685;28;20013;-93
2024/03/21 08:11:11;;;;;;;41.90;25.08;;;22.20;33.40;;;;;;4981139;28;20027;-90
2024/03/21 08:13:37;;;;;;;38.30;24.25;;;21.80;33.90;;;;;;5000824;28;20037;-93
2024/03/21 08:16:06;;;;;;;45.50;27.40;;;22.10;33.90;;;;;;5009439;28;20019;-92
2024/03/21 08:18:33;;;;;;;42.45;27.08;;;22.10;33.70;;;;;;4992317;28;20023;-92
2024/03/21 08:21:00;;;;;;;38.55;27.15;;;22.70;33.10;;;;;;5002979;28;20066;-93
2024/03/21 08:23:26;;;;;;;;;;;23.50;32.70;;;;;;4987599;28;20045;-91
2024/03/21 08:25:58;;;;;;;39.47;28.10;;;23.20;33.80;;;;;;4986332;28;19912;-96
2024/03/21 08:28:24;;;;;;;58.78;29.75;;;23.00;32.50;;;;;;5008513;28;20026;-93
2024/03/21 08:30:51;;;;;;;32.67;23.40;;;22.80;32.30;;;;;;5000401;28;20029;-89
2024/03/21 08:33:17;;;;;;;42.13;26.45;;;22.60;31.30;;;;;;5004101;28;20033;-90
2024/03/21 08:36:07;;;;;;;44.15;29.27;;;22.30;32.40;;;;;;4996241;28;20033;-92
2024/03/21 08:38:33;;;;;;;35.80;26.52;;;23.00;31.80;;;;;;4987560;28;20046;-94
2024/03/21 08:41:02;;;;;;;36.97;26.83;;;;;;;;;;4981460;28;20062;-95
2024/03/21 08:43:28;;;;;;;36.15;26.10;;;23.50;30.10;;;;;;4987248;28;20051;-93
2024/03/21 08:45:59;;;;;;;43.35;24.83;;;23.90;30.60;;;;;;4988764;28;20033;-93
2024/03/21 08:48:25;;;;;;;32.92;23.65;;;24.40;30.30;;;;;;4970787;29;20050;-92
2024/03/21 08:50:51;;;;;;;71.63;31.08;;;23.40;29.60;;;;;;4960320;29;20035;-93
2024/03/21 08:53:17;;;;;;;34.25;22.23;;;23.00;30.90;;;;;;4963140;29;20031;-92
2024/03/21 08:55:46;;;;;;;36.83;25.42;;;23.60;30.40;;;;;;4971502;28;20027;-93
2024/03/21 08:58:13;;;;;;;40.00;23.73;;;23.20;30.40;;;;;;4963102;29;20024;-93
2024/03/21 09:00:40;;;;;;;32.70;24.10;;;23.40;30.40;;;;;;4959851;29;20032;-93
2024/03/21 09:03:08;;;;;;;41.50;25.97;;;23.50;29.90;;;;;;4962532;29;20070;-96
2024/03/21 09:05:33;;;;;;;34.40;23.55;;;23.30;30.40;;;;;;4962995;29;20054;-94
2024/03/21 09:07:59;;;;;;;29.00;22.92;;;23.40;30.00;;;;;;4958307;29;20117;-93
2024/03/21 09:10:25;;;;;;;27.05;20.70;;;23.40;29.70;;;;;;4961728;29;20034;-93
2024/03/21 09:12:51;;;;;;;32.78;22.75;;;23.10;29.70;;;;;;4972462;28;20039;-95
2024/03/21 09:15:18;;;;;;;22.45;19.35;;;22.10;30.50;;;;;;4972626;29;20031;-92
2024/03/21 09:17:44;;;;;;;26.33;19.55;;;22.50;30.40;;;;;;4974556;29;20033;-92
2024/03/21 09:20:11;;;;;;;28.55;20.88;;;20.60;30.90;;;;;;4974908;29;20039;-92
2024/03/21 09:22:37;;;;;;;24.07;17.40;;;19.70;31.80;;;;;;4971983;29;20061;-92
2024/03/21 09:25:04;;;;;;;30.35;20.40;;;20.20;31.70;;;;;;4967515;29;20253;-94
2024/03/21 09:27:30;;;;;;;29.05;21.20;;;20.80;31.80;;;;;;4965916;29;20043;-91
2024/03/21 09:29:57;;;;;;;27.95;18.80;;;21.90;30.60;;;;;;4962588;29;20035;-92
2024/03/21 09:32:22;;;;;;;33.53;19.87;;;22.90;29.80;;;;;;4960990;29;20035;-93
2024/03/21 09:34:52;;;;;;;39.13;20.52;;;23.00;29.40;;;;;;4960853;29;20075;-91
2024/03/21 09:37:18;;;;;;;37.67;21.77;;;23.70;29.00;;;;;;4962998;29;20139;-94
2024/03/21 09:39:45;;;;;;;24.67;18.00;;;24.40;28.80;;;;;;5003565;28;20042;-93
2024/03/21 09:42:25;;;;;;;26.73;17.77;;;25.30;28.20;;;;;;5000857;28;20042;-89
2024/03/21 09:44:53;;;;;;;19.42;14.60;;;25.00;27.70;;;;;;4999574;28;20033;-92
2024/03/21 09:47:20;;;;;;;26.00;17.20;;;24.40;27.50;;;;;;4983912;28;20069;-91
2024/03/21 09:49:47;;;;;;;33.65;20.05;;;23.10;28.00;;;;;;4984352;28;20143;-92
2024/03/21 09:52:19;;;;;;;25.45;19.90;;;22.40;29.10;;;;;;4999004;28;20476;-92
2024/03/21 09:54:53;;;;;;;33.00;20.23;;;22.90;28.70;;;;;;5003993;28;20030;-89
2024/03/21 09:57:20;;;;;;;28.23;19.60;;;22.40;29.10;;;;;;5004018;28;20041;-91
2024/03/21 09:59:46;;;;;;;31.40;22.60;;;23.20;28.80;;;;;;4987353;28;20030;-94
2024/03/21 10:02:15;;;;;;;31.48;20.52;;;23.90;28.70;;;;;;5004160;28;20109;-93
2024/03/21 10:04:46;;;;;;;22.48;16.98;;;24.40;27.90;;;;;;5008082;28;20053;-88
2024/03/21 10:07:23;;;;;;;21.30;16.00;;;23.90;27.10;;;;;;5014845;28;20098;-93
2024/03/21 10:09:55;;;;;;;33.85;16.88;;;22.30;28.00;;;;;;5003030;28;20078;-94
2024/03/21 10:12:25;;;;;;;30.67;16.77;;;21.20;28.20;;;;;;5010980;28;20080;-93
2024/03/21 10:14:59;;;;;;;27.73;15.45;;;22.20;28.20;;;;;;5004807;28;20015;-90
2024/03/21 10:17:26;;;;;;;29.23;14.65;;;22.90;27.40;;;;;;4991652;28;20486;-91
2024/03/21 10:19:57;;;;;;;34.08;16.77;;;23.60;27.40;;;;;;4996429;28;20022;-94
2024/03/21 10:22:24;;;;;;;22.63;15.88;;;24.60;27.40;;;;;;4987670;28;20050;-91
2024/03/21 10:24:52;;;;;;;19.25;14.93;;;25.20;26.90;;;;;;5001865;28;20030;-92
2024/03/21 10:27:18;;;;;;;;;;;23.90;26.80;;;;;;4998194;28;20092;-90
2024/03/21 10:29:47;;;;;;;24.03;18.27;;;21.90;28.00;;;;;;4979986;28;20366;-91
2024/03/21 10:32:24;;;;;;;31.90;21.30;;;20.40;28.90;;;;;;4996895;28;20133;-92
2024/03/21 10:34:53;;;;;;;19.70;13.05;;;18.30;30.50;;;;;;4987414;28;20034;-88
2024/03/21 10:37:21;;;;;;;24.85;15.27;;;16.70;30.70;;;;;;4998205;28;20038;-92
2024/03/21 10:39:48;;;;;;;22.55;15.07;;;15.00;32.10;;;;;;4978614;28;20380;-92
2024/03/21 10:42:29;;;;;;;25.08;15.80;;;14.20;33.50;;;;;;4977724;28;20046;-90
2024/03/21 10:45:08;;;;;;;22.85;14.82;;;13.40;34.40;;;;;;4996005;28;20030;-91
2024/03/21 10:47:34;;;;;;;28.90;19.17;;;13.20;34.90;;;;;;4986161;28;20014;-91
2024/03/21 10:50:00;;;;;;;34.22;21.45;;;12.90;35.40;;;;;;5000940;28;20550;-92
2024/03/21 10:52:26;;;;;;;31.10;20.10;;;12.50;36.50;;;;;;4999488;28;20041;-93
2024/03/21 10:54:54;;;;;;;27.27;19.67;;;12.40;37.10;;;;;;4978273;28;20027;-92
2024/03/21 10:57:27;;;;;;;46.28;21.98;;;12.20;37.50;;;;;;4996032;28;20104;-92
2024/03/21 11:00:10;;;;;;;33.90;19.35;;;12.20;37.80;;;;;;4998721;28;20137;-91
2024/03/21 11:02:43;;;;;;;20.73;13.23;;;11.90;37.50;;;;;;4997349;28;20061;-92
2024/03/21 11:05:16;;;;;;;21.92;14.88;;;11.20;37.30;;;;;;5000162;28;20026;-90
2024/03/21 11:07:44;;;;;;;27.85;16.73;;;10.70;38.80;;;;;;5012386;28;20029;-91
2024/03/21 11:10:17;;;;;;;39.75;20.77;;;10.50;38.90;;;;;;5001257;28;20041;-91
2024/03/21 11:12:52;;;;;;;37.97;21.13;;;10.30;39.60;;;;;;4997588;28;20033;-91
2024/03/21 11:15:19;;;;;;;35.17;20.30;;;10.40;39.90;;;;;;4998765;28;20037;-92
2024/03/21 11:17:45;;;;;;;;;;;10.70;39.50;;;;;;5004394;28;20045;-91
2024/03/21 11:20:13;;;;;;;19.92;11.63;;;10.60;38.30;;;;;;5002372;28;19906;-91
2024/03/21 11:22:44;;;;;;;23.88;11.27;;;10.60;37.80;;;;;;5000015;28;20467;-92
2024/03/21 11:25:15;;;;;;;16.05;10.05;;;10.60;36.50;;;;;;4998236;28;20062;-93
2024/03/21 11:27:43;;;;;;;21.55;10.18;;;10.30;35.80;;;;;;4997816;28;20026;-91
2024/03/21 11:30:12;;;;;;;20.55;8.07;;;10.20;35.80;;;;;;4979870;28;20057;-93
2024/03/21 11:32:38;;;;;;;11.25;4.45;;;10.40;34.80;;;;;;4999508;28;20026;-92
2024/03/21 11:35:04;;;;;;;6.70;3.85;;;10.50;32.40;;;;;;5003361;28;20037;-89
2024/03/21 11:37:30;;;;;;;9.45;4.00;;;10.40;32.10;;;;;;4991588;28;20042;-92
2024/03/21 11:39:57;;;;;;;10.50;5.93;;;10.50;31.80;;;;;;4973301;28;20496;-92
2024/03/21 11:42:26;;;;;;;11.02;4.13;;;10.40;30.00;;;;;;4981233;28;20035;-89
2024/03/21 11:44:52;;;;;;;9.77;3.85;;;10.30;29.70;;;;;;4997228;28;20029;-92
2024/03/21 11:47:18;;;;;;;8.38;4.05;;;10.10;30.00;;;;;;4981457;28;20470;-93
2024/03/21 11:49:51;;;;;;;4.30;2.72;;;10.10;29.90;;;;;;4989511;28;20472;-89
2024/03/21 11:52:18;;;;;;;12.38;4.88;;;10.10;29.20;;;;;;5000509;28;20023;-87
2024/03/21 11:54:44;;;;;;;;;;;10.00;29.80;;;;;;4980613;28;20425;-91
2024/03/21 11:57:16;;;;;;;6.93;4.20;;;10.00;30.20;;;;;;4995686;28;20004;-91
2024/03/21 11:59:46;;;;;;;7.75;4.07;;;10.10;30.20;;;;;;4995504;28;20058;-91
2024/03/21 12:02:17;;;;;;;5.78;3.42;;;10.10;30.30;;;;;;4995516;28;20031;-90
2024/03/21 12:04:44;;;;;;;7.07;3.95;;;9.90;29.60;;;;;;4995620;28;20022;-93
2024/03/21 12:07:15;;;;;;;7.75;3.42;;;9.90;30.00;;;;;;4997502;28;20026;-92
2024/03/21 12:09:41;;;;;;;6.30;3.92;;;9.80;30.10;;;;;;4999870;28;20073;-94
2024/03/21 12:12:14;;;;;;;7.38;4.47;;;9.70;30.90;;;;;;4998396;28;20370;-89
2024/03/21 12:14:43;;;;;;;9.00;4.05;;;9.80;31.30;;;;;;4996331;28;20104;-91
2024/03/21 12:17:11;;;;;;;13.05;6.82;;;9.80;31.00;;;;;;4998901;28;20435;-90
2024/03/21 12:19:37;;;;;;;;;;;9.90;32.10;;;;;;5000238;28;20021;-91
2024/03/21 12:22:03;;;;;;;11.77;5.88;;;9.90;32.10;;;;;;4995311;28;19925;-92
2024/03/21 12:24:29;;;;;;;8.13;5.18;;;9.90;32.10;;;;;;5015680;28;20519;-90
2024/03/21 12:26:54;;;;;;;21.02;7.72;;;10.10;32.70;;;;;;4986794;28;20031;-92
2024/03/21 12:29:20;;;;;;;14.60;7.88;;;10.30;32.40;;;;;;4975023;28;20093;-91
2024/03/21 12:31:46;;;;;;;14.30;7.10;;;10.60;32.60;;;;;;4999527;28;20061;-91
2024/03/21 12:34:12;;;;;;;10.55;5.93;;;10.90;32.60;;;;;;4999166;28;20532;-92
2024/03/21 12:36:38;;;;;;;12.10;6.07;;;11.30;32.60;;;;;;4995318;28;20031;-89
2024/03/21 12:39:04;;;;;;;11.52;5.50;;;11.70;32.30;;;;;;4989043;28;20078;-94
2024/03/21 12:41:30;;;;;;;7.50;5.20;;;11.80;31.60;;;;;;5004666;28;20319;-91